Terminal Aerodrome Forecast
Issued by NWS Raleigh/Durham, NC

Home | Current Version | Previous Version | Text Only | Print | Product List | Glossary On
Versions: 1 2 3 4 5 6 7 8 9 10 11 12 13 14 15 16 17 18 19 20 21 22 23 24 25 26 27 28 29 30 31 32 33 34 35 36 37 38 39 40 41 42 43 44 45 46 47 48 49 50
000
FTUS42 KRAH 250947 AAB
TAFGSO
TAF AMD
KGSO 250947Z 2510/2606 07004KT P6SM BKN008 OVC016
      TEMPO 2510/2514 SCT008 OVC015
     FM251400 05005KT P6SM BKN030 BKN050
     FM251600 06005KT P6SM BKN035
     FM260200 VRB02KT P6SM SCT020 SCT040=

USA.gov is the U.S. government's official web portal to all federal, state and local government web resources and services.